»·PEaware :: ASA708 CYVR-KLAX

ASA708 :: CYVR-KLAX

FLIGHT INFORMATION

Flight Status: Arrived
Operator:
Alaska Airlines
More flights by this operator :: More flights under this callsign
Pilot: Justin U. (116)
Aircraft: BOEING 737-800
(B738)
More flights by this aircraft type
Origin: CYVR Vancouver Intl
Canada
Destination: KLAX Los Angeles Intl
United States
More flights between these airports :: More routes between these airports
Route: YVR J5 SEA JINMO Q7 AVE SADDE6
File this flight plan on PilotEdge
Remarks: SEL / DGFP / V /
Altitude:
(Current/Filed)
39,000ft
Speed:
(Current/Filed)
443kts
Departed: 16-May-12 06:38 AM
Arrived: 16-May-12 07:59 AM
Distance/Time
Traveled:
940nm/1:20
Distance/Time
To Go:
Arrived

Flight Plot

Page will automatically refresh every two minutes.


Map Options




Map Legend


Flown Route
Filed Route
Departure Airport
Arrival Airport
Navaid (VOR, NDB)
Fix

Horizontal Profiles

Position Reports

Time Latitude Longitude Heading Altitude Ground
Speed
16-May-12 06:36 42.342655 -121.204232 176 39159ft 453kts
16-May-12 06:37 42.217724 -121.177085 176 39159ft 453kts
16-May-12 06:38 42.092904 -121.150070 176 39159ft 453kts
16-May-12 06:39 41.968107 -121.123168 176 39159ft 453kts
16-May-12 06:40 41.843774 -121.096471 176 39159ft 453kts
16-May-12 06:41 41.718140 -121.069602 176 39170ft 460kts
16-May-12 06:42 41.591742 -121.042674 176 39169ft 458kts
16-May-12 06:43 41.465765 -121.015942 176 39179ft 459kts
16-May-12 06:44 41.339312 -120.989213 176 39179ft 459kts
16-May-12 06:45 41.212922 -120.962536 176 39179ft 459kts
16-May-12 06:46 41.086510 -120.936059 176 39179ft 458kts
16-May-12 06:47 40.960589 -120.913498 182 39180ft 454kts
16-May-12 06:48 40.834644 -120.904335 183 39145ft 451kts
16-May-12 06:49 40.708924 -120.894749 182 39133ft 451kts
16-May-12 06:50 40.583244 -120.884875 182 39139ft 451kts
16-May-12 06:51 40.457645 -120.874949 183 39136ft 451kts
16-May-12 06:52 40.332439 -120.865060 183 39133ft 451kts
16-May-12 06:53 40.206975 -120.855202 183 39129ft 450kts
16-May-12 06:54 40.081589 -120.845378 183 39129ft 450kts
16-May-12 06:55 39.956223 -120.835588 183 39134ft 450kts
16-May-12 06:56 39.831195 -120.825862 183 39139ft 449kts
16-May-12 06:57 39.706127 -120.816140 184 39198ft 449kts
16-May-12 06:58 39.581041 -120.806496 184 39219ft 449kts
16-May-12 06:59 39.456359 -120.796906 184 39219ft 449kts
16-May-12 07:00 39.331341 -120.787321 184 39219ft 449kts
16-May-12 07:01 39.206337 -120.777770 184 39215ft 449kts
16-May-12 07:02 39.102126 -120.769830 184 39223ft 449kts
16-May-12 07:03 38.975562 -120.760224 184 39220ft 449kts
16-May-12 07:04 38.850805 -120.750784 184 39165ft 447kts
16-May-12 07:05 38.726329 -120.741403 184 39132ft 446kts
16-May-12 07:06 38.602070 -120.732069 184 39137ft 448kts
16-May-12 07:07 38.477385 -120.722734 184 39139ft 447kts
16-May-12 07:08 38.353223 -120.713469 184 39129ft 447kts
16-May-12 07:09 38.228717 -120.704216 184 39120ft 447kts
16-May-12 07:10 38.104259 -120.694995 184 39115ft 447kts
16-May-12 07:11 37.979797 -120.685804 185 39083ft 446kts
16-May-12 07:12 37.855327 -120.676646 185 39069ft 447kts
16-May-12 07:13 37.730580 -120.667498 185 39068ft 448kts
16-May-12 07:14 37.605995 -120.658362 185 39069ft 447kts
16-May-12 07:15 37.481050 -120.649271 185 39070ft 451kts
16-May-12 07:16 37.355704 -120.639639 182 39068ft 453kts
16-May-12 07:17 37.230508 -120.599076 169 39062ft 471kts
16-May-12 07:18 37.105688 -120.548942 169 39060ft 469kts
16-May-12 07:19 36.980792 -120.499167 169 39060ft 470kts
16-May-12 07:20 36.856456 -120.449724 169 39069ft 469kts
16-May-12 07:21 36.731701 -120.400389 169 39069ft 469kts
16-May-12 07:22 36.607010 -120.351276 169 39069ft 469kts
16-May-12 07:23 36.482474 -120.302446 169 39069ft 466kts
16-May-12 07:24 36.360818 -120.254820 168 39069ft 467kts
16-May-12 07:25 36.233978 -120.205358 168 39070ft 468kts
16-May-12 07:26 36.109563 -120.157010 168 39069ft 467kts
16-May-12 07:27 35.985207 -120.108845 169 39069ft 467kts
16-May-12 07:28 35.860749 -120.060693 169 39070ft 467kts
16-May-12 07:29 35.736311 -120.012862 168 39079ft 467kts
16-May-12 07:30 35.615768 -119.951520 153 39094ft 480kts
16-May-12 07:31 35.505243 -119.856310 149 38594ft 486kts
16-May-12 07:32 35.395031 -119.760865 149 36155ft 482kts
16-May-12 07:33 35.284674 -119.666141 148 33444ft 485kts
16-May-12 07:34 35.173912 -119.571458 148 30974ft 479kts
16-May-12 07:35 35.065684 -119.479261 148 28939ft 467kts
16-May-12 07:36 34.960404 -119.389747 147 26949ft 457kts
16-May-12 07:37 34.857438 -119.302027 146 25034ft 444kts
16-May-12 07:38 34.756724 -119.216854 146 23101ft 436kts
16-May-12 07:39 34.657147 -119.133022 147 21090ft 433kts
16-May-12 07:40 34.558358 -119.049899 146 19150ft 429kts
16-May-12 07:41 34.463036 -118.970064 146 17249ft 398kts
16-May-12 07:42 34.375258 -118.897009 148 15532ft 375kts
16-May-12 07:43 34.278797 -118.851781 166 13773ft 370kts
16-May-12 07:44 34.180287 -118.816403 165 12138ft 366kts
16-May-12 07:45 34.085464 -118.781640 165 11237ft 344kts
16-May-12 07:46 34.027923 -118.715589 98 10415ft 323kts
16-May-12 07:47 34.025190 -118.617002 91 9406ft 312kts
16-May-12 07:48 34.015433 -118.511523 92 7800ft 317kts
16-May-12 07:49 34.012229 -118.410490 82 6708ft 284kts
16-May-12 07:50 34.015472 -118.316843 82 5777ft 276kts
16-May-12 07:51 34.019002 -118.225241 82 4661ft 270kts
16-May-12 07:52 33.984518 -118.160277 183 3895ft 257kts
16-May-12 07:53 33.964845 -118.220068 279 3043ft 209kts
16-May-12 07:54 33.964008 -118.284962 264 2015ft 180kts
16-May-12 07:55 33.959442 -118.330317 262 1293ft 156kts
16-May-12 07:56 33.954121 -118.382138 262 474ft 155kts
16-May-12 07:57 33.949738 -118.424561 247 134ft 51kts
16-May-12 07:58 33.946552 -118.427875 176 134ft 5kts
16-May-12 07:59 33.942469 -118.427303 172 134ft 15kts
16-May-12 08:00 33.939263 -118.426847 172 134ft 15kts
16-May-12 08:01 33.937372 -118.421672 82 134ft 21kts
16-May-12 08:02 33.937867 -118.416888 83 134ft 19kts
16-May-12 08:03 33.938474 -118.411020 83 134ft 18kts
16-May-12 08:04 33.939092 -118.404915 81 134ft 10kts
16-May-12 08:05 33.939992 -118.402474 38 134ft 0kts
16-May-12 08:06 33.939992 -118.402474 38 134ft 0kts
16-May-12 08:07 33.939992 -118.402474 38 134ft 0kts

Navigation Log

Ident Type
1. CYVR Airport
2. YVR Navaid
3. SEA Navaid
4. JINMO Fix
5. JOGEN Fix
6. JUNEJ Fix
7. JAGWA Fix
8. AVE Navaid
9. DERBB Fix
10. REYES Fix
11. FIM Navaid
12. SYMON Fix
13. SADDE Fix
14. BAYST Fix
15. SMO Navaid
16. JAVSI Fix
17. KLAX Airport